Time;durP1;ratioP1;P1;durP2;ratioP2;P2;SDS_P1;SDS_P2;PMS_P1;PMS_P2;Temp;Humidity;BMP_temperature;BMP_pressure;BME280_temperature;BME280_humidity;BME280_pressure;Samples;Min_cycle;Max_cycle;Signal;HPM_P1;HPM_P2
2024/04/09 00:02:15;;;;;;;21.95;10.07;;;13.50;99.90;;;;;;5492355;26;20492;-84
2024/04/09 00:04:42;;;;;;;17.98;10.60;;;13.40;99.90;;;;;;5492791;26;20030;-85
2024/04/09 00:26:14;;;;;;;16.67;11.13;;;13.50;99.90;;;;;;5477037;26;20040;-85
2024/04/09 00:28:42;;;;;;;19.08;10.55;;;13.50;99.90;;;;;;5428699;26;20031;-85
2024/04/09 00:31:10;;;;;;;18.55;12.02;;;13.40;99.90;;;;;;5461431;26;20030;-85
2024/04/09 00:33:38;;;;;;;22.67;11.32;;;13.50;99.90;;;;;;5455749;26;20031;-84
2024/04/09 00:36:09;;;;;;;16.33;11.63;;;13.50;99.90;;;;;;5474468;26;20514;-85
2024/04/09 00:38:39;;;;;;;18.95;12.10;;;13.60;99.90;;;;;;5482259;26;20039;-85
2024/04/09 00:41:10;;;;;;;19.23;11.70;;;13.60;99.90;;;;;;5472473;26;20034;-85
2024/04/09 00:43:38;;;;;;;17.30;10.52;;;13.60;99.90;;;;;;5492798;26;20029;-85
2024/04/09 00:46:06;;;;;;;16.80;11.50;;;13.60;99.90;;;;;;5447781;26;20372;-85
2024/04/09 00:48:34;;;;;;;25.00;12.30;;;13.60;99.90;;;;;;5457595;26;20030;-85
2024/04/09 00:51:07;;;;;;;18.85;11.85;;;13.60;99.90;;;;;;5471415;26;20028;-85
2024/04/09 00:53:36;;;;;;;18.13;12.05;;;13.60;99.90;;;;;;5457781;26;20028;-85
2024/04/09 00:56:05;;;;;;;19.23;12.18;;;13.60;99.90;;;;;;5461033;26;20030;-85
2024/04/09 00:58:34;;;;;;;21.50;12.48;;;13.60;99.90;;;;;;5453902;26;20484;-85
2024/04/09 01:01:04;;;;;;;19.05;13.00;;;13.60;99.90;;;;;;5473476;26;20037;-85
2024/04/09 01:03:35;;;;;;;16.95;12.38;;;13.60;99.90;;;;;;5453680;26;20412;-85
2024/04/09 01:06:03;;;;;;;20.52;13.45;;;13.60;99.90;;;;;;5445690;26;20473;-85
2024/04/09 01:08:31;;;;;;;21.08;13.02;;;13.60;99.90;;;;;;5434873;26;20041;-84
2024/04/09 01:10:59;;;;;;;19.20;12.85;;;13.60;99.90;;;;;;5480389;26;20028;-84
2024/04/09 01:13:27;;;;;;;16.90;12.15;;;13.50;99.90;;;;;;5475309;26;20027;-85
2024/04/09 01:15:55;;;;;;;17.25;12.43;;;13.50;99.90;;;;;;5486868;26;20027;-84
2024/04/09 01:18:23;;;;;;;19.00;12.85;;;13.40;99.90;;;;;;5453569;26;20027;-85
2024/04/09 01:20:51;;;;;;;18.67;12.95;;;13.40;99.90;;;;;;5482672;26;20043;-85
2024/04/09 01:23:18;;;;;;;20.88;13.25;;;13.40;99.90;;;;;;5439833;26;20016;-85
2024/04/09 01:25:46;;;;;;;25.23;14.68;;;13.40;99.90;;;;;;5464994;26;20031;-85
2024/04/09 01:28:15;;;;;;;21.00;13.02;;;13.40;99.90;;;;;;5460026;26;20383;-85
2024/04/09 01:30:43;;;;;;;18.10;13.02;;;13.40;99.90;;;;;;5426519;26;20038;-85
2024/04/09 01:33:11;;;;;;;21.92;13.55;;;13.40;99.90;;;;;;5449294;26;20389;-85
2024/04/09 01:35:42;;;;;;;21.83;14.48;;;13.40;99.90;;;;;;5468694;26;20026;-84
2024/04/09 01:38:10;;;;;;;20.92;14.15;;;13.40;99.90;;;;;;5490952;26;20043;-84
2024/04/09 01:40:38;;;;;;;22.65;14.77;;;13.40;99.90;;;;;;5445172;26;20039;-85
2024/04/09 01:43:06;;;;;;;18.85;12.98;;;13.40;99.90;;;;;;5477226;26;20382;-84
2024/04/09 01:45:34;;;;;;;19.08;13.98;;;13.40;99.90;;;;;;5445756;26;20795;-85
2024/04/09 01:48:02;;;;;;;19.73;13.15;;;13.40;99.90;;;;;;5457241;26;20027;-84
2024/04/09 01:50:31;;;;;;;19.17;13.20;;;13.40;99.90;;;;;;5438938;26;20027;-84
2024/04/09 01:52:59;;;;;;;21.48;14.18;;;13.30;99.90;;;;;;5486301;26;20027;-84
2024/04/09 01:55:27;;;;;;;19.17;13.35;;;13.30;99.90;;;;;;5490996;26;20031;-84
2024/04/09 01:57:56;;;;;;;22.63;13.45;;;13.30;99.90;;;;;;5453302;26;20019;-85
2024/04/09 02:00:24;;;;;;;22.90;13.13;;;13.30;99.90;;;;;;5475879;26;20039;-85
2024/04/09 02:02:52;;;;;;;21.77;14.35;;;13.30;99.90;;;;;;5458958;26;20031;-85
2024/04/09 02:05:20;;;;;;;21.08;13.65;;;13.30;99.90;;;;;;5465728;26;20026;-84
2024/04/09 02:07:48;;;;;;;18.85;12.95;;;13.30;99.90;;;;;;5465733;26;20035;-85
2024/04/09 02:10:16;;;;;;;21.08;14.13;;;13.30;99.90;;;;;;5447708;26;20384;-85
2024/04/09 02:12:44;;;;;;;21.20;13.77;;;13.30;99.90;;;;;;5459652;26;20030;-84
2024/04/09 02:15:12;;;;;;;19.67;14.15;;;13.30;99.90;;;;;;5459943;26;20031;-84
2024/04/09 02:17:40;;;;;;;22.95;14.68;;;13.40;99.90;;;;;;5474974;26;20026;-84
2024/04/09 02:20:10;;;;;;;22.02;14.55;;;13.40;99.90;;;;;;5479065;26;20027;-85
2024/04/09 02:22:37;;;;;;;25.05;15.00;;;13.40;99.90;;;;;;5429326;26;20037;-84
2024/04/09 02:25:08;;;;;;;21.50;14.13;;;13.40;99.90;;;;;;5444522;26;20026;-84
2024/04/09 02:27:36;;;;;;;21.77;14.50;;;13.50;99.90;;;;;;5442750;26;20041;-85
2024/04/09 02:30:09;;;;;;;20.88;13.93;;;13.50;99.90;;;;;;5477686;26;20038;-84
2024/04/09 02:32:37;;;;;;;22.33;14.05;;;13.50;99.90;;;;;;5436663;26;20027;-85
2024/04/09 02:35:05;;;;;;;21.52;14.02;;;13.50;99.90;;;;;;5455372;26;20023;-85
2024/04/09 02:37:41;;;;;;;22.83;14.00;;;13.50;99.90;;;;;;5471151;26;20023;-85
2024/04/09 02:40:15;;;;;;;22.88;14.20;;;13.40;99.90;;;;;;5448838;26;20030;-85
2024/04/09 02:42:43;;;;;;;20.50;13.70;;;13.40;99.90;;;;;;5490731;26;20028;-84
2024/04/09 02:45:14;;;;;;;19.83;13.00;;;13.40;99.90;;;;;;5493198;26;20034;-85
2024/04/09 02:47:41;;;;;;;22.25;13.23;;;13.30;99.90;;;;;;5454206;26;20031;-85
2024/04/09 02:50:09;;;;;;;19.45;13.68;;;13.30;99.90;;;;;;5472165;26;20023;-84
2024/04/09 02:52:38;;;;;;;18.67;12.30;;;13.20;99.90;;;;;;5484131;26;20027;-84
2024/04/09 02:55:06;;;;;;;21.38;13.88;;;13.20;99.90;;;;;;5434457;26;20388;-85
2024/04/09 02:57:34;;;;;;;18.33;13.45;;;13.20;99.90;;;;;;5458534;26;20050;-85
2024/04/09 03:00:03;;;;;;;23.23;12.57;;;13.10;99.90;;;;;;5454314;26;20390;-85
2024/04/09 03:02:31;;;;;;;22.77;13.98;;;13.10;99.90;;;;;;5452675;26;20035;-85
2024/04/09 03:04:59;;;;;;;21.95;13.95;;;13.10;99.90;;;;;;5465585;26;20382;-84
2024/04/09 03:07:27;;;;;;;21.02;14.52;;;13.10;99.90;;;;;;5452104;26;20032;-85
2024/04/09 03:09:54;;;;;;;21.52;13.65;;;13.10;99.90;;;;;;5470541;26;20026;-84
2024/04/09 03:12:22;;;;;;;18.08;12.40;;;13.10;99.90;;;;;;5501017;26;20030;-84
2024/04/09 03:14:51;;;;;;;18.30;12.57;;;13.10;99.90;;;;;;5490444;26;20383;-85
2024/04/09 03:17:18;;;;;;;19.58;12.45;;;13.10;99.90;;;;;;5451335;26;20037;-85
2024/04/09 03:19:49;;;;;;;20.08;13.35;;;13.20;99.90;;;;;;5442904;26;20024;-85
2024/04/09 03:22:17;;;;;;;19.52;13.07;;;13.10;99.90;;;;;;5451032;26;20026;-85
2024/04/09 03:24:47;;;;;;;20.13;12.68;;;13.00;99.90;;;;;;5489242;26;20035;-85
2024/04/09 03:27:16;;;;;;;19.25;11.60;;;13.10;99.90;;;;;;5452768;26;20026;-85
2024/04/09 03:29:48;;;;;;;17.27;11.20;;;13.10;99.90;;;;;;5464036;26;20023;-85
2024/04/09 03:32:16;;;;;;;18.08;11.90;;;13.00;99.90;;;;;;5442430;26;20031;-85
2024/04/09 03:34:46;;;;;;;21.40;12.20;;;13.00;99.90;;;;;;5473553;26;20869;-84
2024/04/09 03:37:14;;;;;;;17.67;12.18;;;12.90;99.90;;;;;;5457999;26;20031;-84
2024/04/09 03:39:42;;;;;;;19.02;12.00;;;13.00;99.90;;;;;;5468466;26;20373;-84
2024/04/09 03:42:11;;;;;;;21.33;11.85;;;13.00;99.90;;;;;;5456672;26;20075;-85
2024/04/09 03:44:39;;;;;;;17.75;10.30;;;13.00;99.90;;;;;;5457413;26;20034;-84
2024/04/09 03:47:07;;;;;;;16.73;10.57;;;12.90;99.90;;;;;;5441669;26;20104;-84
2024/04/09 03:49:36;;;;;;;17.88;10.77;;;12.90;99.90;;;;;;5433804;26;20040;-84
2024/04/09 03:52:05;;;;;;;25.00;10.70;;;12.90;99.90;;;;;;5499892;26;20026;-84
2024/04/09 03:54:33;;;;;;;22.00;11.32;;;12.90;99.90;;;;;;5458024;26;20023;-84
2024/04/09 03:57:03;;;;;;;17.65;10.48;;;12.90;99.90;;;;;;5482168;26;20027;-84
2024/04/09 03:59:33;;;;;;;17.65;10.45;;;12.90;99.90;;;;;;5498713;26;20038;-84
2024/04/09 04:02:01;;;;;;;16.25;10.35;;;12.90;99.90;;;;;;5429579;26;20031;-85
2024/04/09 04:04:29;;;;;;;15.98;9.93;;;12.90;99.90;;;;;;5450474;26;20388;-84
2024/04/09 04:06:57;;;;;;;16.17;9.93;;;12.90;99.90;;;;;;5494376;26;20031;-85
2024/04/09 04:09:25;;;;;;;16.23;9.43;;;12.80;99.90;;;;;;5452788;26;20043;-84
2024/04/09 04:11:53;;;;;;;16.50;10.23;;;12.80;99.90;;;;;;5455830;26;20034;-84
2024/04/09 04:14:21;;;;;;;15.32;10.25;;;12.80;99.90;;;;;;5457033;26;20035;-85
2024/04/09 04:16:49;;;;;;;19.20;9.35;;;12.80;99.90;;;;;;5476176;26;20026;-84
2024/04/09 04:19:16;;;;;;;18.45;10.20;;;12.80;99.90;;;;;;5453998;26;20028;-85
2024/04/09 04:21:44;;;;;;;13.90;9.38;;;12.70;99.90;;;;;;5465710;26;20027;-85
2024/04/09 04:24:13;;;;;;;14.95;8.88;;;12.70;99.90;;;;;;5468893;26;20026;-84
2024/04/09 04:26:40;;;;;;;15.75;8.05;;;12.80;99.90;;;;;;5457353;26;20023;-85
2024/04/09 04:29:10;;;;;;;17.13;7.78;;;12.80;99.90;;;;;;5455664;26;20040;-83
2024/04/09 04:31:38;;;;;;;12.98;7.00;;;12.80;99.90;;;;;;5478262;26;20043;-85
2024/04/09 04:34:07;;;;;;;14.63;7.60;;;12.90;99.90;;;;;;5444059;26;20035;-85
2024/04/09 04:36:35;;;;;;;13.07;7.05;;;12.90;99.90;;;;;;5446859;26;20023;-85
2024/04/09 04:39:03;;;;;;;17.13;7.28;;;12.90;99.90;;;;;;5447111;26;20028;-85
2024/04/09 04:41:31;;;;;;;15.40;6.75;;;13.00;99.90;;;;;;5442234;26;20033;-85
2024/04/09 04:43:59;;;;;;;15.55;6.40;;;13.00;99.90;;;;;;5490485;26;20038;-85
2024/04/09 04:46:27;;;;;;;13.63;6.28;;;13.10;99.90;;;;;;5454891;26;20475;-85
2024/04/09 04:48:55;;;;;;;14.45;7.32;;;13.10;99.90;;;;;;5478257;26;21028;-85
2024/04/09 04:51:23;;;;;;;16.58;7.30;;;13.00;99.90;;;;;;5455037;26;20034;-84
2024/04/09 04:53:51;;;;;;;16.55;8.02;;;13.10;99.90;;;;;;5463708;26;20035;-84
2024/04/09 04:56:18;;;;;;;20.75;7.68;;;13.10;99.90;;;;;;5446448;26;20365;-85
2024/04/09 04:58:47;;;;;;;16.35;8.40;;;13.10;99.90;;;;;;5482971;26;20027;-84
2024/04/09 05:01:15;;;;;;;14.57;8.23;;;13.10;99.90;;;;;;5483766;26;20030;-84
2024/04/09 05:03:42;;;;;;;18.38;9.07;;;13.10;99.90;;;;;;5490679;26;20030;-84
2024/04/09 05:06:10;;;;;;;21.15;9.27;;;13.20;99.90;;;;;;5460199;26;20030;-83
2024/04/09 05:08:38;;;;;;;17.13;8.50;;;13.20;99.90;;;;;;5424479;26;20028;-84
2024/04/09 05:11:08;;;;;;;17.23;8.38;;;13.20;99.90;;;;;;5471885;26;20036;-84
2024/04/09 05:13:36;;;;;;;14.38;7.07;;;13.20;99.90;;;;;;5454410;26;20025;-84
2024/04/09 05:16:04;;;;;;;12.05;7.72;;;13.30;99.90;;;;;;5459423;26;20040;-84
2024/04/09 05:18:32;;;;;;;14.50;8.15;;;13.40;99.90;;;;;;5453353;26;20037;-84
2024/04/09 05:20:59;;;;;;;17.05;7.03;;;13.50;99.90;;;;;;5448390;26;20375;-85
2024/04/09 05:23:28;;;;;;;12.85;6.57;;;13.50;99.90;;;;;;5446111;26;20023;-84
2024/04/09 05:25:56;;;;;;;10.95;5.90;;;13.50;99.90;;;;;;5453800;26;20026;-84
2024/04/09 05:28:24;;;;;;;12.00;5.47;;;13.50;99.90;;;;;;5463236;26;20039;-84
2024/04/09 05:30:52;;;;;;;10.52;5.45;;;13.50;99.90;;;;;;5460767;26;20039;-84
2024/04/09 05:33:19;;;;;;;8.48;5.00;;;13.60;99.90;;;;;;5468120;26;20031;-84
2024/04/09 05:35:51;;;;;;;14.73;5.80;;;13.60;99.90;;;;;;5510076;26;20483;-84
2024/04/09 05:38:19;;;;;;;12.18;5.93;;;13.70;99.90;;;;;;5458162;26;20028;-84
2024/04/09 05:40:54;;;;;;;8.70;5.40;;;13.70;99.90;;;;;;5444818;26;20039;-84
2024/04/09 05:43:23;;;;;;;12.85;5.50;;;13.70;99.90;;;;;;5489915;26;20041;-84
2024/04/09 05:45:51;;;;;;;10.63;5.72;;;13.70;99.90;;;;;;5486214;26;20026;-84
2024/04/09 05:48:19;;;;;;;8.75;5.70;;;13.90;99.90;;;;;;5466140;26;20024;-84
2024/04/09 05:50:47;;;;;;;7.88;5.32;;;13.80;99.90;;;;;;5481393;26;20397;-84
2024/04/09 05:53:15;;;;;;;10.90;5.95;;;13.80;99.90;;;;;;5477591;26;20039;-84
2024/04/09 05:55:53;;;;;;;12.70;6.25;;;13.80;99.90;;;;;;5429478;26;20047;-84
2024/04/09 05:58:21;;;;;;;11.27;6.20;;;13.80;99.90;;;;;;5456123;26;20027;-84
2024/04/09 06:00:53;;;;;;;12.52;6.07;;;13.90;99.90;;;;;;5455259;26;20046;-86
2024/04/09 06:03:20;;;;;;;8.65;5.22;;;13.90;99.90;;;;;;5513788;26;20034;-84
2024/04/09 06:05:51;;;;;;;8.60;5.32;;;13.80;99.90;;;;;;5477874;26;20028;-84
2024/04/09 06:08:19;;;;;;;8.40;4.50;;;13.90;99.90;;;;;;5445322;26;20023;-84
2024/04/09 06:10:46;;;;;;;8.80;4.32;;;13.90;99.90;;;;;;5479221;26;20371;-84
2024/04/09 06:13:14;;;;;;;6.95;3.88;;;13.80;99.90;;;;;;5459277;26;20026;-84
2024/04/09 06:15:42;;;;;;;5.47;3.28;;;13.70;99.90;;;;;;5475321;26;20031;-84
2024/04/09 06:18:10;;;;;;;11.40;3.40;;;13.70;99.90;;;;;;5455817;26;20043;-84
2024/04/09 06:20:38;;;;;;;7.07;3.35;;;13.60;99.90;;;;;;5458618;26;20031;-84
2024/04/09 06:23:06;;;;;;;8.32;3.33;;;13.60;99.90;;;;;;5459054;26;20388;-83
2024/04/09 06:25:34;;;;;;;7.07;3.00;;;13.50;99.90;;;;;;5457378;26;20027;-84
2024/04/09 06:28:03;;;;;;;7.35;3.10;;;13.50;99.90;;;;;;5438927;26;20378;-84
2024/04/09 06:30:31;;;;;;;9.70;2.97;;;13.50;99.90;;;;;;5511732;26;20026;-84
2024/04/09 06:32:59;;;;;;;6.90;3.17;;;13.50;99.90;;;;;;5459164;26;20027;-84
2024/04/09 06:35:28;;;;;;;11.65;4.05;;;13.50;99.90;;;;;;5513866;26;20022;-84
2024/04/09 06:37:57;;;;;;;5.63;2.63;;;13.40;99.90;;;;;;5458350;26;20031;-84
2024/04/09 06:40:25;;;;;;;7.47;2.75;;;13.40;99.90;;;;;;5493123;26;20039;-84
2024/04/09 06:42:53;;;;;;;8.98;2.45;;;13.40;99.90;;;;;;5457957;26;20040;-84
2024/04/09 06:45:21;;;;;;;8.90;3.00;;;13.40;99.90;;;;;;5436069;26;20039;-84
2024/04/09 06:47:48;;;;;;;6.82;2.20;;;13.40;99.90;;;;;;5424048;26;20036;-83
2024/04/09 06:50:16;;;;;;;5.60;1.90;;;13.40;99.90;;;;;;5426873;26;20517;-84
2024/04/09 06:52:44;;;;;;;3.85;1.50;;;13.30;99.90;;;;;;5452129;26;20027;-84
2024/04/09 06:55:12;;;;;;;4.70;1.98;;;13.20;99.90;;;;;;5458113;26;21641;-84
2024/04/09 06:57:40;;;;;;;7.00;1.50;;;13.30;99.90;;;;;;5475184;26;20036;-84
2024/04/09 07:00:08;;;;;;;7.22;1.70;;;13.30;99.90;;;;;;5486716;26;20029;-83
2024/04/09 07:02:36;;;;;;;5.55;1.50;;;13.30;99.90;;;;;;5456739;26;20035;-84
2024/04/09 07:05:05;;;;;;;5.38;1.38;;;13.30;99.90;;;;;;5452566;26;20364;-84
2024/04/09 07:07:34;;;;;;;7.20;1.95;;;13.30;99.90;;;;;;5435522;26;20507;-84
2024/04/09 07:10:02;;;;;;;6.85;1.55;;;13.30;99.90;;;;;;5461509;26;20030;-84
2024/04/09 07:12:31;;;;;;;5.47;1.63;;;13.30;99.90;;;;;;5519291;26;20034;-84
2024/04/09 07:15:03;;;;;;;6.63;1.70;;;13.30;99.90;;;;;;5443014;26;20027;-84
2024/04/09 07:17:31;;;;;;;6.28;1.63;;;13.30;99.90;;;;;;5465445;26;20034;-84
2024/04/09 07:20:03;;;;;;;8.32;1.70;;;13.20;99.90;;;;;;5407217;26;20040;-84
2024/04/09 07:22:31;;;;;;;4.07;1.50;;;13.20;99.90;;;;;;5476475;26;20033;-84
2024/04/09 07:24:59;;;;;;;5.72;1.85;;;13.20;99.90;;;;;;5464259;26;20038;-84
2024/04/09 07:27:27;;;;;;;6.60;1.70;;;13.20;99.90;;;;;;5491204;26;20369;-84
2024/04/09 07:29:55;;;;;;;6.50;1.70;;;13.10;99.90;;;;;;5476072;26;20027;-84
2024/04/09 07:32:23;;;;;;;6.03;2.15;;;13.30;99.90;;;;;;5453294;26;20031;-84
2024/04/09 07:34:51;;;;;;;7.25;1.63;;;13.20;99.90;;;;;;5445904;26;20468;-84
2024/04/09 07:37:19;;;;;;;6.60;1.92;;;13.10;99.90;;;;;;5451742;26;20032;-84
2024/04/09 07:39:47;;;;;;;5.78;1.88;;;13.20;99.90;;;;;;5453930;26;20035;-84
2024/04/09 07:42:15;;;;;;;7.95;1.70;;;13.30;99.90;;;;;;5457862;26;20035;-84
2024/04/09 07:44:43;;;;;;;9.50;1.98;;;13.30;99.90;;;;;;5441007;26;20027;-84
2024/04/09 07:47:11;;;;;;;5.22;2.13;;;13.30;99.90;;;;;;5457317;26;20031;-84
2024/04/09 07:49:39;;;;;;;5.70;1.83;;;13.20;99.90;;;;;;5471575;26;20840;-84
2024/04/09 07:52:07;;;;;;;7.97;1.95;;;13.50;99.90;;;;;;5457875;26;20039;-84
2024/04/09 07:54:35;;;;;;;10.98;2.30;;;13.40;99.90;;;;;;5456277;26;20380;-85
2024/04/09 07:57:04;;;;;;;6.35;1.90;;;13.20;99.90;;;;;;5459552;26;20023;-85
2024/04/09 07:59:31;;;;;;;7.65;2.00;;;13.20;99.90;;;;;;5428877;26;20040;-85
2024/04/09 08:01:59;;;;;;;7.40;2.00;;;13.20;99.90;;;;;;5503681;26;20026;-84
2024/04/09 08:04:27;;;;;;;6.75;1.70;;;13.30;99.90;;;;;;5488041;26;20035;-84
2024/04/09 08:06:55;;;;;;;5.93;1.70;;;13.30;99.90;;;;;;5457734;26;20030;-84
2024/04/09 08:09:23;;;;;;;6.60;2.05;;;13.40;99.90;;;;;;5478171;26;20023;-84
2024/04/09 08:11:53;;;;;;;8.82;2.25;;;13.40;99.90;;;;;;5483648;26;20377;-84
2024/04/09 08:14:22;;;;;;;6.97;1.90;;;13.40;99.90;;;;;;5449520;26;20034;-84
2024/04/09 08:16:51;;;;;;;9.80;2.10;;;13.50;99.90;;;;;;5439645;26;20733;-83
2024/04/09 08:19:19;;;;;;;10.10;2.03;;;13.40;99.90;;;;;;5448281;26;20468;-84
2024/04/09 08:21:46;;;;;;;8.98;1.90;;;13.40;99.90;;;;;;5499242;26;20035;-84
2024/04/09 08:24:14;;;;;;;9.05;1.77;;;13.30;99.90;;;;;;5460643;26;20031;-84
2024/04/09 08:26:42;;;;;;;6.95;1.92;;;13.40;99.90;;;;;;5487996;26;20026;-84
2024/04/09 08:29:15;;;;;;;7.30;1.90;;;13.10;99.90;;;;;;5484332;26;20034;-84
2024/04/09 08:31:44;;;;;;;10.48;2.20;;;13.20;99.90;;;;;;5491353;26;20380;-84
2024/04/09 08:34:12;;;;;;;7.90;2.28;;;13.10;99.90;;;;;;5474073;26;20027;-84
2024/04/09 08:36:40;;;;;;;10.68;1.90;;;13.10;99.90;;;;;;5443923;26;20035;-84
2024/04/09 08:39:12;;;;;;;5.55;1.58;;;13.10;99.90;;;;;;5463416;26;20034;-85
2024/04/09 08:41:41;;;;;;;8.65;1.77;;;13.10;99.90;;;;;;5455939;26;20047;-84
2024/04/09 08:44:12;;;;;;;7.10;1.75;;;13.10;99.90;;;;;;5438092;26;20031;-84
2024/04/09 08:46:40;;;;;;;7.43;2.00;;;13.00;99.90;;;;;;5457810;26;20035;-84
2024/04/09 08:49:09;;;;;;;8.02;1.83;;;13.00;99.90;;;;;;5471375;26;20036;-84
2024/04/09 08:51:38;;;;;;;8.13;1.77;;;13.00;99.90;;;;;;5459958;26;20406;-84
2024/04/09 08:54:06;;;;;;;4.90;1.55;;;13.00;99.90;;;;;;5483250;26;20027;-84
2024/04/09 08:56:34;;;;;;;10.40;1.90;;;13.00;99.90;;;;;;5468356;26;20031;-84
2024/04/09 08:59:04;;;;;;;5.78;1.80;;;13.10;99.90;;;;;;5458548;26;20038;-84
2024/04/09 09:01:32;;;;;;;10.45;1.90;;;13.30;99.90;;;;;;5445850;26;20036;-84
2024/04/09 09:04:00;;;;;;;10.10;2.40;;;13.20;99.90;;;;;;5440137;26;20382;-84
2024/04/09 09:06:29;;;;;;;9.05;1.90;;;13.30;99.90;;;;;;5459033;26;20385;-84
2024/04/09 09:08:58;;;;;;;6.78;1.88;;;13.30;99.90;;;;;;5457605;26;20365;-84
2024/04/09 09:11:26;;;;;;;7.35;1.90;;;13.30;99.90;;;;;;5458926;26;20027;-84
2024/04/09 09:14:04;;;;;;;6.63;1.95;;;13.40;99.90;;;;;;5440724;26;20039;-84
2024/04/09 09:16:32;;;;;;;10.60;1.77;;;13.40;99.90;;;;;;5470204;26;20022;-84
2024/04/09 09:19:06;;;;;;;7.25;1.80;;;13.30;99.90;;;;;;5462436;26;20376;-84
2024/04/09 09:21:34;;;;;;;10.23;2.20;;;13.30;99.90;;;;;;5460218;26;20030;-84
2024/04/09 09:24:02;;;;;;;7.47;2.03;;;13.30;99.90;;;;;;5483090;26;20031;-84
2024/04/09 09:26:29;;;;;;;5.88;2.17;;;13.20;99.90;;;;;;5453263;26;20031;-84
2024/04/09 09:29:02;;;;;;;5.38;2.17;;;13.20;99.90;;;;;;5454040;26;20382;-84
2024/04/09 09:31:32;;;;;;;8.98;2.17;;;13.20;99.90;;;;;;5456179;26;20034;-84
2024/04/09 09:34:05;;;;;;;8.93;2.30;;;13.10;99.90;;;;;;5477042;26;20031;-84
2024/04/09 09:36:36;;;;;;;5.22;2.22;;;13.20;99.90;;;;;;5449029;26;20028;-84
2024/04/09 09:39:04;;;;;;;7.60;2.88;;;13.20;99.90;;;;;;5442585;26;20039;-84
2024/04/09 09:41:33;;;;;;;7.38;2.95;;;13.30;99.90;;;;;;5462555;26;20031;-84
2024/04/09 09:44:02;;;;;;;6.68;2.70;;;13.40;99.90;;;;;;5453156;26;20030;-84
2024/04/09 09:46:31;;;;;;;9.23;2.88;;;13.60;99.90;;;;;;5480051;26;20468;-84
2024/04/09 09:49:00;;;;;;;11.23;3.10;;;13.80;99.90;;;;;;5481204;26;20023;-85
2024/04/09 09:51:29;;;;;;;9.43;2.90;;;13.90;99.90;;;;;;5450496;26;20039;-85
2024/04/09 09:53:57;;;;;;;8.95;3.25;;;14.10;99.90;;;;;;5479312;26;20035;-84
2024/04/09 09:56:28;;;;;;;10.00;3.00;;;14.20;99.90;;;;;;5439316;26;20036;-84
2024/04/09 09:58:57;;;;;;;5.72;2.80;;;14.50;99.90;;;;;;5456954;26;20039;-85
2024/04/09 10:01:27;;;;;;;9.95;3.35;;;14.70;99.90;;;;;;5459126;26;20026;-84
2024/04/09 10:03:55;;;;;;;6.13;2.90;;;14.70;99.90;;;;;;5480507;26;20040;-85
2024/04/09 10:06:27;;;;;;;10.38;2.90;;;14.80;99.90;;;;;;5456288;26;20369;-85
2024/04/09 10:08:55;;;;;;;7.82;2.92;;;14.90;99.90;;;;;;5448877;26;20034;-84
2024/04/09 10:11:23;;;;;;;8.52;3.33;;;14.90;99.90;;;;;;5449445;26;20031;-84
2024/04/09 10:13:52;;;;;;;9.30;2.88;;;15.00;99.90;;;;;;5429494;26;20027;-84
2024/04/09 10:16:22;;;;;;;7.95;2.80;;;15.00;99.90;;;;;;5501225;26;20028;-84
2024/04/09 10:18:51;;;;;;;7.35;3.10;;;15.30;99.90;;;;;;5460733;26;20036;-84
2024/04/09 10:21:28;;;;;;;6.50;2.97;;;15.40;99.90;;;;;;5491100;26;20023;-84
2024/04/09 10:24:01;;;;;;;9.43;2.95;;;15.80;99.90;;;;;;5460137;26;20026;-84
2024/04/09 10:26:30;;;;;;;5.82;2.40;;;15.90;99.90;;;;;;5467991;26;20027;-85
2024/04/09 10:29:02;;;;;;;8.15;2.60;;;15.80;99.90;;;;;;5489057;26;20031;-84
2024/04/09 10:31:31;;;;;;;7.10;2.45;;;15.70;99.90;;;;;;5459695;26;20049;-84
2024/04/09 10:33:58;;;;;;;6.43;2.05;;;15.60;99.90;;;;;;5473940;26;20027;-85
2024/04/09 10:36:27;;;;;;;3.97;2.05;;;15.50;99.90;;;;;;5470353;26;20039;-85
2024/04/09 10:38:56;;;;;;;6.40;2.30;;;15.60;99.90;;;;;;5514474;26;20488;-85
2024/04/09 10:41:25;;;;;;;5.18;1.80;;;15.50;99.90;;;;;;5468876;26;20022;-85
2024/04/09 10:43:53;;;;;;;5.47;1.75;;;15.60;99.90;;;;;;5455501;26;20035;-85
2024/04/09 10:46:21;;;;;;;4.95;1.77;;;15.70;99.90;;;;;;5473881;26;20397;-85
2024/04/09 10:48:49;;;;;;;3.72;1.15;;;16.00;99.90;;;;;;5446019;26;20918;-84
2024/04/09 10:51:17;;;;;;;3.58;1.05;;;16.00;99.90;;;;;;5489723;26;20031;-84
2024/04/09 10:53:45;;;;;;;4.43;0.90;;;15.80;99.90;;;;;;5445077;26;20027;-84
2024/04/09 10:56:14;;;;;;;2.40;0.90;;;15.70;99.90;;;;;;5490765;26;20027;-85
2024/04/09 10:58:42;;;;;;;3.33;1.20;;;15.40;99.90;;;;;;5467236;26;20059;-84
2024/04/09 11:01:12;;;;;;;2.10;0.80;;;15.30;99.90;;;;;;5450550;26;20023;-85
2024/04/09 11:03:40;;;;;;;3.17;1.05;;;15.30;99.90;;;;;;5449604;26;20111;-84
2024/04/09 11:06:13;;;;;;;2.88;1.05;;;15.30;99.90;;;;;;5482792;26;20022;-84
2024/04/09 11:08:40;;;;;;;4.75;1.00;;;15.10;99.90;;;;;;5466965;26;20026;-85
2024/04/09 11:11:09;;;;;;;4.32;1.35;;;15.20;99.90;;;;;;5458101;26;20035;-84
2024/04/09 11:13:38;;;;;;;4.22;1.05;;;15.30;99.90;;;;;;5477948;26;20498;-85
2024/04/09 11:16:16;;;;;;;5.30;1.10;;;15.10;99.90;;;;;;5461572;26;20038;-85
2024/04/09 11:18:57;;;;;;;3.25;1.10;;;15.10;99.90;;;;;;5452599;26;20027;-85
2024/04/09 11:21:28;;;;;;;3.60;1.00;;;14.90;99.90;;;;;;5449646;26;20027;-85
2024/04/09 11:23:56;;;;;;;4.65;1.27;;;14.90;99.90;;;;;;5444616;26;20071;-85
2024/04/09 11:26:26;;;;;;;3.95;1.00;;;14.90;99.90;;;;;;5441768;26;20039;-85
2024/04/09 11:28:54;;;;;;;6.22;1.08;;;14.90;99.90;;;;;;5451701;26;20030;-84
2024/04/09 11:31:22;;;;;;;4.47;0.88;;;15.00;99.90;;;;;;5443896;26;20036;-85
2024/04/09 11:33:50;;;;;;;5.32;1.30;;;14.90;99.90;;;;;;5447106;26;20035;-85
2024/04/09 11:36:18;;;;;;;5.22;1.00;;;14.90;99.90;;;;;;5436772;26;20028;-85
2024/04/09 11:38:46;;;;;;;7.15;1.15;;;15.00;99.90;;;;;;5448920;26;20429;-84
2024/04/09 11:41:14;;;;;;;4.80;0.82;;;15.40;99.90;;;;;;5467027;26;20370;-84
2024/04/09 11:43:42;;;;;;;4.80;1.15;;;15.70;99.90;;;;;;5446421;26;20020;-85
2024/04/09 11:46:10;;;;;;;3.40;0.80;;;15.70;99.90;;;;;;5488859;26;20028;-84
2024/04/09 11:48:38;;;;;;;6.75;1.30;;;15.70;99.90;;;;;;5474522;26;20027;-84
2024/04/09 11:51:06;;;;;;;5.63;1.20;;;15.60;99.90;;;;;;5455192;26;20022;-84
2024/04/09 11:53:42;;;;;;;4.90;1.27;;;15.60;99.90;;;;;;5455879;26;20023;-84
2024/04/09 11:56:10;;;;;;;4.85;1.08;;;15.40;99.90;;;;;;5457681;26;20367;-85
2024/04/09 11:58:38;;;;;;;4.63;1.23;;;15.30;99.90;;;;;;5489013;26;20026;-84
2024/04/09 12:01:06;;;;;;;3.80;1.05;;;15.30;99.90;;;;;;5470947;26;20023;-85
2024/04/09 12:03:34;;;;;;;3.28;1.20;;;15.20;99.90;;;;;;5429546;26;20031;-85
2024/04/09 12:06:02;;;;;;;7.45;1.10;;;15.10;99.90;;;;;;5468546;26;20039;-84
2024/04/09 12:08:30;;;;;;;4.78;0.93;;;15.20;99.90;;;;;;5457183;26;20035;-85
2024/04/09 12:11:00;;;;;;;3.33;0.98;;;15.10;99.90;;;;;;5449475;26;20042;-84
2024/04/09 12:13:28;;;;;;;3.65;1.23;;;15.20;99.90;;;;;;5446392;26;20030;-84
2024/04/09 12:15:56;;;;;;;2.22;0.90;;;15.20;99.90;;;;;;5451031;26;20469;-85
2024/04/09 12:18:27;;;;;;;2.83;1.00;;;15.20;99.90;;;;;;5459540;26;20382;-84
2024/04/09 12:20:55;;;;;;;4.57;1.00;;;15.30;99.90;;;;;;5471892;26;20046;-84
2024/04/09 12:23:23;;;;;;;5.63;1.10;;;15.20;99.90;;;;;;5493511;26;20038;-84
2024/04/09 12:25:51;;;;;;;3.42;1.05;;;15.10;99.90;;;;;;5480439;26;20031;-84
2024/04/09 12:28:19;;;;;;;6.32;1.08;;;15.00;99.90;;;;;;5476849;26;20030;-84
2024/04/09 12:30:47;;;;;;;4.20;1.05;;;15.00;99.90;;;;;;5432224;26;20028;-85
2024/04/09 12:33:15;;;;;;;2.47;0.90;;;14.80;99.90;;;;;;5469369;26;20033;-85
2024/04/09 12:35:43;;;;;;;5.53;1.27;;;14.80;99.90;;;;;;5421488;26;20035;-84
2024/04/09 12:38:11;;;;;;;5.85;0.98;;;14.70;99.90;;;;;;5470259;26;20360;-85
2024/04/09 12:40:38;;;;;;;4.80;1.10;;;14.70;99.90;;;;;;5471254;26;20026;-85
2024/04/09 12:43:07;;;;;;;4.55;1.10;;;14.70;99.90;;;;;;5465569;26;20376;-84
2024/04/09 12:45:34;;;;;;;4.53;1.35;;;14.60;99.90;;;;;;5452237;26;20031;-85
2024/04/09 12:48:03;;;;;;;6.18;1.60;;;14.60;99.90;;;;;;5456747;26;20027;-84
2024/04/09 12:50:31;;;;;;;4.93;1.45;;;14.70;99.90;;;;;;5456235;26;20030;-85
2024/04/09 12:52:59;;;;;;;4.75;1.20;;;14.70;99.90;;;;;;5468993;26;20036;-85
2024/04/09 12:55:28;;;;;;;4.22;1.23;;;14.70;99.90;;;;;;5452671;26;20507;-84
2024/04/09 12:57:57;;;;;;;6.75;2.72;;;14.90;99.90;;;;;;5435861;26;20023;-85
2024/04/09 13:00:26;;;;;;;5.47;1.67;;;14.90;99.90;;;;;;5451181;26;20027;-84
2024/04/09 13:02:54;;;;;;;4.82;1.67;;;14.90;99.90;;;;;;5445462;26;20388;-84
2024/04/09 13:05:22;;;;;;;3.58;0.93;;;15.00;99.90;;;;;;5467974;26;20031;-84